Terminal Aerodrome Forecast
Issued by NWS

Home | Current Version | Previous Version | Text Only | Print | Product List | Glossary On
Versions: 1 2 3 4 5 6 7 8 9 10 11 12 13
838
FTUS43 KMQT 171120
TAFCMX
TAF
KCMX 171120Z 1712/1812 26009KT P6SM SCT200
     FM172100 25005KT P6SM FEW150
     FM180000 14005KT P6SM FEW200
     FM181100 21009KT P6SM SKC=

USA.gov is the U.S. government's official web portal to all federal, state and local government web resources and services.